sensor_id;sensor_type;location;lat;lon;timestamp;temperature;humidity
12335;DHT22;6233;51.560;9.986;2023-06-10T00:00:52;18.90;99.90
12335;DHT22;6233;51.560;9.986;2023-06-10T00:03:54;18.80;99.90
12335;DHT22;6233;51.560;9.986;2023-06-10T00:06:56;18.80;99.90
12335;DHT22;6233;51.560;9.986;2023-06-10T00:09:59;18.80;99.90
12335;DHT22;6233;51.560;9.986;2023-06-10T00:13:05;18.70;99.90
12335;DHT22;6233;51.560;9.986;2023-06-10T00:16:09;18.70;99.90
12335;DHT22;6233;51.560;9.986;2023-06-10T00:19:11;18.60;99.90
12335;DHT22;6233;51.560;9.986;2023-06-10T00:22:15;18.70;99.90
12335;DHT22;6233;51.560;9.986;2023-06-10T00:25:18;18.70;99.90
12335;DHT22;6233;51.560;9.986;2023-06-10T00:28:20;18.60;99.90
12335;DHT22;6233;51.560;9.986;2023-06-10T00:31:22;18.60;99.90
12335;DHT22;6233;51.560;9.986;2023-06-10T00:34:24;18.60;99.90
12335;DHT22;6233;51.560;9.986;2023-06-10T00:37:26;18.50;99.90
12335;DHT22;6233;51.560;9.986;2023-06-10T00:40:28;18.50;99.90
12335;DHT22;6233;51.560;9.986;2023-06-10T00:43:30;18.40;99.90
12335;DHT22;6233;51.560;9.986;2023-06-10T00:46:32;18.40;99.90
12335;DHT22;6233;51.560;9.986;2023-06-10T00:49:35;18.40;99.90
12335;DHT22;6233;51.560;9.986;2023-06-10T00:52:37;18.30;99.90
12335;DHT22;6233;51.560;9.986;2023-06-10T00:55:40;18.30;99.90
12335;DHT22;6233;51.560;9.986;2023-06-10T00:58:42;18.30;99.90
12335;DHT22;6233;51.560;9.986;2023-06-10T01:01:45;18.30;99.90
12335;DHT22;6233;51.560;9.986;2023-06-10T01:04:48;18.30;99.90
12335;DHT22;6233;51.560;9.986;2023-06-10T01:08:01;18.20;99.90
12335;DHT22;6233;51.560;9.986;2023-06-10T01:11:09;18.20;99.90
12335;DHT22;6233;51.560;9.986;2023-06-10T01:14:15;18.20;99.90
12335;DHT22;6233;51.560;9.986;2023-06-10T01:17:18;18.20;99.90
12335;DHT22;6233;51.560;9.986;2023-06-10T01:20:20;18.20;99.90
12335;DHT22;6233;51.560;9.986;2023-06-10T01:23:22;18.20;99.90
12335;DHT22;6233;51.560;9.986;2023-06-10T01:26:30;18.10;99.90
12335;DHT22;6233;51.560;9.986;2023-06-10T01:29:37;18.10;99.90
12335;DHT22;6233;51.560;9.986;2023-06-10T01:32:50;18.00;99.90
12335;DHT22;6233;51.560;9.986;2023-06-10T01:35:53;18.00;99.90
12335;DHT22;6233;51.560;9.986;2023-06-10T01:38:55;17.90;99.90
12335;DHT22;6233;51.560;9.986;2023-06-10T01:41:58;17.90;99.90
12335;DHT22;6233;51.560;9.986;2023-06-10T01:44:59;17.90;99.90
12335;DHT22;6233;51.560;9.986;2023-06-10T01:48:01;17.90;99.90
12335;DHT22;6233;51.560;9.986;2023-06-10T01:51:04;17.80;99.90
12335;DHT22;6233;51.560;9.986;2023-06-10T01:54:06;17.80;99.90
12335;DHT22;6233;51.560;9.986;2023-06-10T01:57:08;17.80;99.90
12335;DHT22;6233;51.560;9.986;2023-06-10T02:00:10;17.80;99.90
12335;DHT22;6233;51.560;9.986;2023-06-10T02:03:12;17.80;99.90
12335;DHT22;6233;51.560;9.986;2023-06-10T02:06:14;17.80;99.90
12335;DHT22;6233;51.560;9.986;2023-06-10T02:09:16;17.80;99.90
12335;DHT22;6233;51.560;9.986;2023-06-10T02:12:19;17.80;99.90
12335;DHT22;6233;51.560;9.986;2023-06-10T02:15:21;17.70;99.90
12335;DHT22;6233;51.560;9.986;2023-06-10T02:18:23;17.80;99.90
12335;DHT22;6233;51.560;9.986;2023-06-10T02:21:25;17.80;99.90
12335;DHT22;6233;51.560;9.986;2023-06-10T02:24:26;17.70;99.90
12335;DHT22;6233;51.560;9.986;2023-06-10T02:27:28;17.70;99.90
12335;DHT22;6233;51.560;9.986;2023-06-10T02:30:30;17.70;99.90
12335;DHT22;6233;51.560;9.986;2023-06-10T02:33:32;17.60;99.90
12335;DHT22;6233;51.560;9.986;2023-06-10T02:36:35;17.60;99.90
12335;DHT22;6233;51.560;9.986;2023-06-10T02:39:37;17.60;99.90
12335;DHT22;6233;51.560;9.986;2023-06-10T02:42:39;17.60;99.90
12335;DHT22;6233;51.560;9.986;2023-06-10T02:45:40;17.60;99.90
12335;DHT22;6233;51.560;9.986;2023-06-10T02:48:43;17.60;99.90
12335;DHT22;6233;51.560;9.986;2023-06-10T02:51:45;17.60;99.90
12335;DHT22;6233;51.560;9.986;2023-06-10T02:54:47;17.60;99.90
12335;DHT22;6233;51.560;9.986;2023-06-10T02:57:48;17.70;99.90
12335;DHT22;6233;51.560;9.986;2023-06-10T03:00:50;17.60;99.90
12335;DHT22;6233;51.560;9.986;2023-06-10T03:03:52;17.60;99.90
12335;DHT22;6233;51.560;9.986;2023-06-10T03:06:54;17.50;99.90
12335;DHT22;6233;51.560;9.986;2023-06-10T03:09:56;17.50;99.90
12335;DHT22;6233;51.560;9.986;2023-06-10T03:12:58;17.40;99.90
12335;DHT22;6233;51.560;9.986;2023-06-10T03:16:00;17.30;99.90
12335;DHT22;6233;51.560;9.986;2023-06-10T03:19:02;17.30;99.90
12335;DHT22;6233;51.560;9.986;2023-06-10T03:22:12;17.30;99.90
12335;DHT22;6233;51.560;9.986;2023-06-10T03:25:14;17.30;99.90
12335;DHT22;6233;51.560;9.986;2023-06-10T03:28:16;17.30;99.90
12335;DHT22;6233;51.560;9.986;2023-06-10T03:31:18;17.30;99.90
12335;DHT22;6233;51.560;9.986;2023-06-10T03:34:20;17.30;99.90
12335;DHT22;6233;51.560;9.986;2023-06-10T03:37:23;17.20;99.90
12335;DHT22;6233;51.560;9.986;2023-06-10T03:40:25;17.30;99.90
12335;DHT22;6233;51.560;9.986;2023-06-10T03:43:27;17.30;99.90
12335;DHT22;6233;51.560;9.986;2023-06-10T03:46:29;17.30;99.90
12335;DHT22;6233;51.560;9.986;2023-06-10T03:49:31;17.30;99.90
12335;DHT22;6233;51.560;9.986;2023-06-10T03:52:32;17.30;99.90
12335;DHT22;6233;51.560;9.986;2023-06-10T03:55:34;17.30;99.90
12335;DHT22;6233;51.560;9.986;2023-06-10T03:58:36;17.30;99.90
12335;DHT22;6233;51.560;9.986;2023-06-10T04:01:38;17.20;99.90
12335;DHT22;6233;51.560;9.986;2023-06-10T04:04:42;17.10;99.90
12335;DHT22;6233;51.560;9.986;2023-06-10T04:07:44;17.00;99.90
12335;DHT22;6233;51.560;9.986;2023-06-10T04:10:46;16.80;99.90
12335;DHT22;6233;51.560;9.986;2023-06-10T04:13:49;16.80;99.90
12335;DHT22;6233;51.560;9.986;2023-06-10T04:16:50;16.70;99.90
12335;DHT22;6233;51.560;9.986;2023-06-10T04:19:52;16.80;99.90
12335;DHT22;6233;51.560;9.986;2023-06-10T04:22:56;16.80;99.90
12335;DHT22;6233;51.560;9.986;2023-06-10T04:25:58;16.80;99.90
12335;DHT22;6233;51.560;9.986;2023-06-10T04:29:01;16.80;99.90
12335;DHT22;6233;51.560;9.986;2023-06-10T04:32:03;16.90;99.90
12335;DHT22;6233;51.560;9.986;2023-06-10T04:35:07;16.90;99.90
12335;DHT22;6233;51.560;9.986;2023-06-10T04:38:09;16.90;99.90
12335;DHT22;6233;51.560;9.986;2023-06-10T04:41:11;17.00;99.90
12335;DHT22;6233;51.560;9.986;2023-06-10T04:44:13;17.00;99.90
12335;DHT22;6233;51.560;9.986;2023-06-10T04:47:15;17.00;99.90
12335;DHT22;6233;51.560;9.986;2023-06-10T04:50:18;17.00;99.90
12335;DHT22;6233;51.560;9.986;2023-06-10T04:53:20;17.10;99.90
12335;DHT22;6233;51.560;9.986;2023-06-10T04:56:22;17.10;99.90
12335;DHT22;6233;51.560;9.986;2023-06-10T04:59:24;17.20;99.90
12335;DHT22;6233;51.560;9.986;2023-06-10T05:02:26;17.30;99.90
12335;DHT22;6233;51.560;9.986;2023-06-10T05:05:27;17.50;99.90
12335;DHT22;6233;51.560;9.986;2023-06-10T05:08:29;17.80;99.90
12335;DHT22;6233;51.560;9.986;2023-06-10T05:11:31;18.20;99.90
12335;DHT22;6233;51.560;9.986;2023-06-10T05:14:33;18.50;99.90
12335;DHT22;6233;51.560;9.986;2023-06-10T05:17:34;18.80;99.90
12335;DHT22;6233;51.560;9.986;2023-06-10T05:20:36;19.20;99.90
12335;DHT22;6233;51.560;9.986;2023-06-10T05:23:38;19.50;99.90
12335;DHT22;6233;51.560;9.986;2023-06-10T05:26:40;19.90;99.90
12335;DHT22;6233;51.560;9.986;2023-06-10T05:29:42;20.10;99.90
12335;DHT22;6233;51.560;9.986;2023-06-10T05:32:44;20.40;99.90
12335;DHT22;6233;51.560;9.986;2023-06-10T05:35:46;20.60;99.90
12335;DHT22;6233;51.560;9.986;2023-06-10T05:38:48;20.90;99.90
12335;DHT22;6233;51.560;9.986;2023-06-10T05:41:53;21.20;99.90
12335;DHT22;6233;51.560;9.986;2023-06-10T05:44:55;21.40;99.90
12335;DHT22;6233;51.560;9.986;2023-06-10T05:47:57;21.60;99.90
12335;DHT22;6233;51.560;9.986;2023-06-10T05:50:59;21.70;99.90
12335;DHT22;6233;51.560;9.986;2023-06-10T05:54:01;21.90;99.90
12335;DHT22;6233;51.560;9.986;2023-06-10T05:57:03;22.30;99.90
12335;DHT22;6233;51.560;9.986;2023-06-10T06:00:05;22.50;99.90
12335;DHT22;6233;51.560;9.986;2023-06-10T06:03:08;22.80;99.90
12335;DHT22;6233;51.560;9.986;2023-06-10T06:06:10;22.90;99.90
12335;DHT22;6233;51.560;9.986;2023-06-10T06:09:12;23.10;99.90
12335;DHT22;6233;51.560;9.986;2023-06-10T06:12:14;23.40;99.90
12335;DHT22;6233;51.560;9.986;2023-06-10T06:15:16;23.40;99.90
12335;DHT22;6233;51.560;9.986;2023-06-10T06:18:17;23.60;99.90
12335;DHT22;6233;51.560;9.986;2023-06-10T06:21:20;23.80;99.90
12335;DHT22;6233;51.560;9.986;2023-06-10T06:24:22;24.00;99.90
12335;DHT22;6233;51.560;9.986;2023-06-10T06:27:23;24.10;99.90
12335;DHT22;6233;51.560;9.986;2023-06-10T06:30:25;24.20;99.90
12335;DHT22;6233;51.560;9.986;2023-06-10T06:33:27;24.50;99.90
12335;DHT22;6233;51.560;9.986;2023-06-10T06:36:29;24.60;99.90
12335;DHT22;6233;51.560;9.986;2023-06-10T06:39:30;24.50;99.90
12335;DHT22;6233;51.560;9.986;2023-06-10T06:42:32;24.70;99.90
12335;DHT22;6233;51.560;9.986;2023-06-10T06:45:34;24.90;99.90
12335;DHT22;6233;51.560;9.986;2023-06-10T06:48:35;25.50;99.90
12335;DHT22;6233;51.560;9.986;2023-06-10T06:51:37;26.00;99.90
12335;DHT22;6233;51.560;9.986;2023-06-10T06:54:42;26.30;99.90
12335;DHT22;6233;51.560;9.986;2023-06-10T06:57:43;26.60;99.90
12335;DHT22;6233;51.560;9.986;2023-06-10T07:00:45;26.80;99.90
12335;DHT22;6233;51.560;9.986;2023-06-10T07:03:47;26.90;99.90
12335;DHT22;6233;51.560;9.986;2023-06-10T07:06:49;26.80;99.90
12335;DHT22;6233;51.560;9.986;2023-06-10T07:09:50;26.80;99.90
12335;DHT22;6233;51.560;9.986;2023-06-10T07:12:52;26.90;99.90
12335;DHT22;6233;51.560;9.986;2023-06-10T07:15:54;27.10;99.90
12335;DHT22;6233;51.560;9.986;2023-06-10T07:18:56;27.30;99.90
12335;DHT22;6233;51.560;9.986;2023-06-10T07:21:58;27.20;99.90
12335;DHT22;6233;51.560;9.986;2023-06-10T07:25:00;27.20;99.90
12335;DHT22;6233;51.560;9.986;2023-06-10T07:28:01;27.10;99.90
12335;DHT22;6233;51.560;9.986;2023-06-10T07:31:03;27.30;99.90
12335;DHT22;6233;51.560;9.986;2023-06-10T07:34:05;27.80;99.90
12335;DHT22;6233;51.560;9.986;2023-06-10T07:37:07;28.10;99.90
12335;DHT22;6233;51.560;9.986;2023-06-10T07:40:33;28.20;99.90
12335;DHT22;6233;51.560;9.986;2023-06-10T07:43:36;28.10;99.90
12335;DHT22;6233;51.560;9.986;2023-06-10T07:46:38;28.10;99.90
12335;DHT22;6233;51.560;9.986;2023-06-10T07:49:40;28.60;99.90
12335;DHT22;6233;51.560;9.986;2023-06-10T07:52:43;28.80;99.90
12335;DHT22;6233;51.560;9.986;2023-06-10T07:55:45;29.00;99.90
12335;DHT22;6233;51.560;9.986;2023-06-10T07:58:47;29.00;99.90
12335;DHT22;6233;51.560;9.986;2023-06-10T08:01:48;29.20;99.90
12335;DHT22;6233;51.560;9.986;2023-06-10T08:04:50;29.30;99.90
12335;DHT22;6233;51.560;9.986;2023-06-10T08:07:52;29.50;99.90
12335;DHT22;6233;51.560;9.986;2023-06-10T08:10:53;29.50;99.90
12335;DHT22;6233;51.560;9.986;2023-06-10T08:13:55;29.60;99.90
12335;DHT22;6233;51.560;9.986;2023-06-10T08:16:57;29.70;99.90
12335;DHT22;6233;51.560;9.986;2023-06-10T08:19:59;29.80;99.90
12335;DHT22;6233;51.560;9.986;2023-06-10T08:23:01;29.70;99.90
12335;DHT22;6233;51.560;9.986;2023-06-10T08:26:03;30.00;99.90
12335;DHT22;6233;51.560;9.986;2023-06-10T08:29:04;30.40;99.90
12335;DHT22;6233;51.560;9.986;2023-06-10T08:32:06;30.50;98.80
12335;DHT22;6233;51.560;9.986;2023-06-10T08:35:08;30.80;99.00
12335;DHT22;6233;51.560;9.986;2023-06-10T08:38:11;30.90;99.20
12335;DHT22;6233;51.560;9.986;2023-06-10T08:41:14;31.00;96.30
12335;DHT22;6233;51.560;9.986;2023-06-10T08:44:45;31.20;95.20
12335;DHT22;6233;51.560;9.986;2023-06-10T08:47:50;31.50;94.80
12335;DHT22;6233;51.560;9.986;2023-06-10T08:50:57;31.40;92.70
12335;DHT22;6233;51.560;9.986;2023-06-10T08:54:05;31.30;93.10
12335;DHT22;6233;51.560;9.986;2023-06-10T08:57:11;31.40;93.50
12335;DHT22;6233;51.560;9.986;2023-06-10T09:00:15;31.50;93.80
12335;DHT22;6233;51.560;9.986;2023-06-10T09:03:18;31.60;93.10
12335;DHT22;6233;51.560;9.986;2023-06-10T09:06:20;31.50;93.50
12335;DHT22;6233;51.560;9.986;2023-06-10T09:09:51;31.40;92.30
12335;DHT22;6233;51.560;9.986;2023-06-10T09:12:55;31.60;96.20
12335;DHT22;6233;51.560;9.986;2023-06-10T09:15:57;31.80;93.00
12335;DHT22;6233;51.560;9.986;2023-06-10T09:19:02;31.90;93.40
12335;DHT22;6233;51.560;9.986;2023-06-10T09:22:09;31.70;93.00
12335;DHT22;6233;51.560;9.986;2023-06-10T09:25:12;31.80;92.40
12335;DHT22;6233;51.560;9.986;2023-06-10T09:28:15;31.80;94.70
12335;DHT22;6233;51.560;9.986;2023-06-10T09:31:17;31.70;94.80
12335;DHT22;6233;51.560;9.986;2023-06-10T09:34:20;32.10;94.30
12335;DHT22;6233;51.560;9.986;2023-06-10T09:37:26;32.20;90.90
12335;DHT22;6233;51.560;9.986;2023-06-10T09:40:28;32.40;90.00
12335;DHT22;6233;51.560;9.986;2023-06-10T09:43:43;32.40;88.70
12335;DHT22;6233;51.560;9.986;2023-06-10T09:46:50;32.30;90.10
12335;DHT22;6233;51.560;9.986;2023-06-10T09:49:52;32.60;89.10
12335;DHT22;6233;51.560;9.986;2023-06-10T09:52:56;32.30;87.70
12335;DHT22;6233;51.560;9.986;2023-06-10T09:55:58;31.90;89.40
12335;DHT22;6233;51.560;9.986;2023-06-10T09:59:00;32.00;88.90
12335;DHT22;6233;51.560;9.986;2023-06-10T10:02:02;31.70;89.50
12335;DHT22;6233;51.560;9.986;2023-06-10T10:05:08;31.60;90.00
12335;DHT22;6233;51.560;9.986;2023-06-10T10:08:10;31.00;91.20
12335;DHT22;6233;51.560;9.986;2023-06-10T10:11:12;30.90;91.80
12335;DHT22;6233;51.560;9.986;2023-06-10T10:14:15;30.80;92.40
12335;DHT22;6233;51.560;9.986;2023-06-10T10:17:20;31.10;91.40
12335;DHT22;6233;51.560;9.986;2023-06-10T10:20:27;31.40;91.50
12335;DHT22;6233;51.560;9.986;2023-06-10T10:23:37;31.50;90.70
12335;DHT22;6233;51.560;9.986;2023-06-10T10:26:43;31.40;90.50
12335;DHT22;6233;51.560;9.986;2023-06-10T10:29:48;31.20;90.40
12335;DHT22;6233;51.560;9.986;2023-06-10T10:33:09;30.90;91.00
12335;DHT22;6233;51.560;9.986;2023-06-10T10:36:14;30.70;91.20
12335;DHT22;6233;51.560;9.986;2023-06-10T10:39:17;30.00;91.60
12335;DHT22;6233;51.560;9.986;2023-06-10T10:42:20;29.60;92.80
12335;DHT22;6233;51.560;9.986;2023-06-10T10:45:22;29.20;92.70
12335;DHT22;6233;51.560;9.986;2023-06-10T10:48:24;28.90;94.50
12335;DHT22;6233;51.560;9.986;2023-06-10T10:51:33;28.80;95.40
12335;DHT22;6233;51.560;9.986;2023-06-10T10:54:36;28.70;94.70
12335;DHT22;6233;51.560;9.986;2023-06-10T10:57:39;28.60;96.50
12335;DHT22;6233;51.560;9.986;2023-06-10T11:00:45;28.20;97.00
12335;DHT22;6233;51.560;9.986;2023-06-10T11:03:49;28.10;97.20
12335;DHT22;6233;51.560;9.986;2023-06-10T11:06:55;27.80;98.30
12335;DHT22;6233;51.560;9.986;2023-06-10T11:10:14;27.70;98.10
12335;DHT22;6233;51.560;9.986;2023-06-10T11:13:20;27.60;99.10
12335;DHT22;6233;51.560;9.986;2023-06-10T11:16:26;27.70;99.70
12335;DHT22;6233;51.560;9.986;2023-06-10T11:19:35;27.70;99.40
12335;DHT22;6233;51.560;9.986;2023-06-10T11:23:00;27.60;99.90
12335;DHT22;6233;51.560;9.986;2023-06-10T11:29:28;27.40;99.90
12335;DHT22;6233;51.560;9.986;2023-06-10T11:32:32;27.40;99.90
12335;DHT22;6233;51.560;9.986;2023-06-10T11:39:37;27.40;99.90
12335;DHT22;6233;51.560;9.986;2023-06-10T11:42:40;27.20;99.90
12335;DHT22;6233;51.560;9.986;2023-06-10T11:45:44;27.10;99.90
12335;DHT22;6233;51.560;9.986;2023-06-10T11:48:51;27.20;99.90
12335;DHT22;6233;51.560;9.986;2023-06-10T11:51:53;27.20;99.90
12335;DHT22;6233;51.560;9.986;2023-06-10T11:54:55;27.30;99.90
12335;DHT22;6233;51.560;9.986;2023-06-10T11:57:57;27.20;99.90
12335;DHT22;6233;51.560;9.986;2023-06-10T12:00:59;27.30;99.90
12335;DHT22;6233;51.560;9.986;2023-06-10T12:04:05;27.20;99.90
12335;DHT22;6233;51.560;9.986;2023-06-10T12:07:06;26.90;99.90
12335;DHT22;6233;51.560;9.986;2023-06-10T12:10:08;26.90;99.90
12335;DHT22;6233;51.560;9.986;2023-06-10T12:13:28;27.00;99.90
12335;DHT22;6233;51.560;9.986;2023-06-10T12:16:30;27.10;99.90
12335;DHT22;6233;51.560;9.986;2023-06-10T12:19:38;27.20;99.90
12335;DHT22;6233;51.560;9.986;2023-06-10T12:22:43;27.30;99.90
12335;DHT22;6233;51.560;9.986;2023-06-10T12:25:52;27.50;99.90
12335;DHT22;6233;51.560;9.986;2023-06-10T12:28:54;27.50;99.90
12335;DHT22;6233;51.560;9.986;2023-06-10T12:31:58;27.50;99.90
12335;DHT22;6233;51.560;9.986;2023-06-10T12:35:04;27.70;99.90
12335;DHT22;6233;51.560;9.986;2023-06-10T12:38:06;27.60;99.90
12335;DHT22;6233;51.560;9.986;2023-06-10T12:41:08;27.50;99.90
12335;DHT22;6233;51.560;9.986;2023-06-10T12:44:10;27.20;99.90
12335;DHT22;6233;51.560;9.986;2023-06-10T12:47:13;27.10;99.90
12335;DHT22;6233;51.560;9.986;2023-06-10T12:50:15;27.10;99.90
12335;DHT22;6233;51.560;9.986;2023-06-10T12:53:16;27.10;99.90
12335;DHT22;6233;51.560;9.986;2023-06-10T12:56:18;27.20;99.90
12335;DHT22;6233;51.560;9.986;2023-06-10T12:59:20;27.20;99.90
12335;DHT22;6233;51.560;9.986;2023-06-10T13:02:22;27.10;99.90
12335;DHT22;6233;51.560;9.986;2023-06-10T13:05:25;27.00;99.90
12335;DHT22;6233;51.560;9.986;2023-06-10T13:08:27;26.90;99.90
12335;DHT22;6233;51.560;9.986;2023-06-10T13:11:29;26.70;99.90
12335;DHT22;6233;51.560;9.986;2023-06-10T13:14:30;26.60;99.90
12335;DHT22;6233;51.560;9.986;2023-06-10T13:17:32;26.40;99.90
12335;DHT22;6233;51.560;9.986;2023-06-10T13:20:35;26.30;99.90
12335;DHT22;6233;51.560;9.986;2023-06-10T13:23:37;26.30;99.90
12335;DHT22;6233;51.560;9.986;2023-06-10T13:26:39;26.30;99.90
12335;DHT22;6233;51.560;9.986;2023-06-10T13:29:41;26.30;99.90
12335;DHT22;6233;51.560;9.986;2023-06-10T13:32:43;26.30;99.90
12335;DHT22;6233;51.560;9.986;2023-06-10T13:35:45;26.20;99.90
12335;DHT22;6233;51.560;9.986;2023-06-10T13:38:47;26.10;99.90
12335;DHT22;6233;51.560;9.986;2023-06-10T13:41:49;26.10;99.90
12335;DHT22;6233;51.560;9.986;2023-06-10T13:44:50;26.10;99.40
12335;DHT22;6233;51.560;9.986;2023-06-10T13:48:30;26.10;99.90
12335;DHT22;6233;51.560;9.986;2023-06-10T13:51:32;26.10;99.90
12335;DHT22;6233;51.560;9.986;2023-06-10T13:54:34;26.00;99.20
12335;DHT22;6233;51.560;9.986;2023-06-10T13:57:39;25.90;99.90
12335;DHT22;6233;51.560;9.986;2023-06-10T14:00:41;25.90;99.90
12335;DHT22;6233;51.560;9.986;2023-06-10T14:03:42;25.90;99.90
12335;DHT22;6233;51.560;9.986;2023-06-10T14:06:44;26.00;99.90
12335;DHT22;6233;51.560;9.986;2023-06-10T14:09:47;26.00;99.90
12335;DHT22;6233;51.560;9.986;2023-06-10T14:12:48;26.00;99.90
12335;DHT22;6233;51.560;9.986;2023-06-10T14:15:50;25.90;99.90
12335;DHT22;6233;51.560;9.986;2023-06-10T14:18:52;25.90;99.90
12335;DHT22;6233;51.560;9.986;2023-06-10T14:21:54;25.90;99.90
12335;DHT22;6233;51.560;9.986;2023-06-10T14:24:56;26.00;99.90
12335;DHT22;6233;51.560;9.986;2023-06-10T14:27:58;26.00;99.90
12335;DHT22;6233;51.560;9.986;2023-06-10T14:31:00;25.90;99.90
12335;DHT22;6233;51.560;9.986;2023-06-10T14:34:02;25.90;99.90
12335;DHT22;6233;51.560;9.986;2023-06-10T14:37:04;26.00;99.90
12335;DHT22;6233;51.560;9.986;2023-06-10T14:40:09;26.00;99.90
12335;DHT22;6233;51.560;9.986;2023-06-10T14:43:11;26.00;99.90
12335;DHT22;6233;51.560;9.986;2023-06-10T14:46:13;25.90;99.90
12335;DHT22;6233;51.560;9.986;2023-06-10T14:49:15;25.90;99.90
12335;DHT22;6233;51.560;9.986;2023-06-10T14:52:17;25.90;99.90
12335;DHT22;6233;51.560;9.986;2023-06-10T14:55:18;25.90;99.90
12335;DHT22;6233;51.560;9.986;2023-06-10T14:58:20;25.90;99.90
12335;DHT22;6233;51.560;9.986;2023-06-10T15:01:22;25.90;99.90
12335;DHT22;6233;51.560;9.986;2023-06-10T15:04:24;25.90;99.90
12335;DHT22;6233;51.560;9.986;2023-06-10T15:07:26;25.90;99.90
12335;DHT22;6233;51.560;9.986;2023-06-10T15:10:28;25.80;99.90
12335;DHT22;6233;51.560;9.986;2023-06-10T15:13:29;25.80;99.90
12335;DHT22;6233;51.560;9.986;2023-06-10T15:16:31;25.70;99.90
12335;DHT22;6233;51.560;9.986;2023-06-10T15:19:34;25.70;99.90
12335;DHT22;6233;51.560;9.986;2023-06-10T15:22:36;25.70;99.90
12335;DHT22;6233;51.560;9.986;2023-06-10T15:25:37;25.70;99.90
12335;DHT22;6233;51.560;9.986;2023-06-10T15:28:42;25.70;99.90
12335;DHT22;6233;51.560;9.986;2023-06-10T15:31:43;25.70;99.90
12335;DHT22;6233;51.560;9.986;2023-06-10T15:34:45;25.60;99.90
12335;DHT22;6233;51.560;9.986;2023-06-10T15:37:49;25.60;99.90
12335;DHT22;6233;51.560;9.986;2023-06-10T15:40:50;25.60;99.90
12335;DHT22;6233;51.560;9.986;2023-06-10T15:43:52;25.50;99.90
12335;DHT22;6233;51.560;9.986;2023-06-10T15:46:54;25.50;99.90
12335;DHT22;6233;51.560;9.986;2023-06-10T15:49:56;25.50;99.90
12335;DHT22;6233;51.560;9.986;2023-06-10T15:52:58;25.50;99.90
12335;DHT22;6233;51.560;9.986;2023-06-10T15:56:32;25.60;99.90
12335;DHT22;6233;51.560;9.986;2023-06-10T15:59:34;25.60;99.90
12335;DHT22;6233;51.560;9.986;2023-06-10T16:02:36;25.50;99.90
12335;DHT22;6233;51.560;9.986;2023-06-10T16:05:38;25.50;99.90
12335;DHT22;6233;51.560;9.986;2023-06-10T16:08:40;25.50;99.90
12335;DHT22;6233;51.560;9.986;2023-06-10T16:11:42;25.60;99.90
12335;DHT22;6233;51.560;9.986;2023-06-10T16:14:43;25.60;99.90
12335;DHT22;6233;51.560;9.986;2023-06-10T16:17:45;25.50;99.90
12335;DHT22;6233;51.560;9.986;2023-06-10T16:20:48;25.50;99.90
12335;DHT22;6233;51.560;9.986;2023-06-10T16:23:50;25.50;99.90
12335;DHT22;6233;51.560;9.986;2023-06-10T16:26:52;25.60;99.90
12335;DHT22;6233;51.560;9.986;2023-06-10T16:29:54;25.30;99.90
12335;DHT22;6233;51.560;9.986;2023-06-10T16:32:56;24.80;99.90
12335;DHT22;6233;51.560;9.986;2023-06-10T16:35:58;24.50;99.90
12335;DHT22;6233;51.560;9.986;2023-06-10T16:39:00;24.20;99.90
12335;DHT22;6233;51.560;9.986;2023-06-10T16:42:02;23.90;99.90
12335;DHT22;6233;51.560;9.986;2023-06-10T16:45:05;23.60;99.90
12335;DHT22;6233;51.560;9.986;2023-06-10T16:48:07;23.30;99.90
12335;DHT22;6233;51.560;9.986;2023-06-10T16:51:09;22.90;99.90
12335;DHT22;6233;51.560;9.986;2023-06-10T16:54:10;22.80;99.90
12335;DHT22;6233;51.560;9.986;2023-06-10T16:57:12;22.50;99.90
12335;DHT22;6233;51.560;9.986;2023-06-10T17:03:58;22.10;99.90
12335;DHT22;6233;51.560;9.986;2023-06-10T17:07:00;22.00;99.90
12335;DHT22;6233;51.560;9.986;2023-06-10T17:10:02;21.80;99.90
12335;DHT22;6233;51.560;9.986;2023-06-10T17:13:05;21.70;99.90
12335;DHT22;6233;51.560;9.986;2023-06-10T17:16:07;21.70;99.90
12335;DHT22;6233;51.560;9.986;2023-06-10T17:19:09;21.60;99.90
12335;DHT22;6233;51.560;9.986;2023-06-10T17:22:10;21.60;99.90
12335;DHT22;6233;51.560;9.986;2023-06-10T17:25:12;21.60;99.90
12335;DHT22;6233;51.560;9.986;2023-06-10T17:28:14;21.50;99.90
12335;DHT22;6233;51.560;9.986;2023-06-10T17:31:16;21.50;99.90
12335;DHT22;6233;51.560;9.986;2023-06-10T17:34:18;21.50;99.90
12335;DHT22;6233;51.560;9.986;2023-06-10T17:37:20;21.60;99.90
12335;DHT22;6233;51.560;9.986;2023-06-10T17:40:21;21.60;99.90
12335;DHT22;6233;51.560;9.986;2023-06-10T17:43:37;21.70;99.90
12335;DHT22;6233;51.560;9.986;2023-06-10T17:47:11;21.80;99.90
12335;DHT22;6233;51.560;9.986;2023-06-10T17:50:13;21.90;99.90
12335;DHT22;6233;51.560;9.986;2023-06-10T17:53:19;22.00;99.90
12335;DHT22;6233;51.560;9.986;2023-06-10T17:56:25;22.10;99.90
12335;DHT22;6233;51.560;9.986;2023-06-10T17:59:28;22.10;99.90
12335;DHT22;6233;51.560;9.986;2023-06-10T18:02:29;22.10;99.90
12335;DHT22;6233;51.560;9.986;2023-06-10T18:05:31;22.10;99.90
12335;DHT22;6233;51.560;9.986;2023-06-10T18:08:33;22.10;99.90
12335;DHT22;6233;51.560;9.986;2023-06-10T18:11:36;22.00;99.90
12335;DHT22;6233;51.560;9.986;2023-06-10T18:14:38;21.90;99.90
12335;DHT22;6233;51.560;9.986;2023-06-10T18:17:40;21.80;99.90
12335;DHT22;6233;51.560;9.986;2023-06-10T18:20:42;21.80;99.90
12335;DHT22;6233;51.560;9.986;2023-06-10T18:23:43;21.70;99.90
12335;DHT22;6233;51.560;9.986;2023-06-10T18:26:45;21.70;99.90
12335;DHT22;6233;51.560;9.986;2023-06-10T18:29:47;21.70;99.90
12335;DHT22;6233;51.560;9.986;2023-06-10T18:32:49;21.70;99.90
12335;DHT22;6233;51.560;9.986;2023-06-10T18:35:50;21.60;99.90
12335;DHT22;6233;51.560;9.986;2023-06-10T18:38:52;21.60;99.90
12335;DHT22;6233;51.560;9.986;2023-06-10T18:41:54;21.60;99.90
12335;DHT22;6233;51.560;9.986;2023-06-10T18:48:54;21.60;99.90
12335;DHT22;6233;51.560;9.986;2023-06-10T18:51:56;21.50;99.90
12335;DHT22;6233;51.560;9.986;2023-06-10T18:54:57;21.50;99.90
12335;DHT22;6233;51.560;9.986;2023-06-10T18:57:59;21.50;99.90
12335;DHT22;6233;51.560;9.986;2023-06-10T19:01:02;21.40;99.90
12335;DHT22;6233;51.560;9.986;2023-06-10T19:04:04;21.30;99.90
12335;DHT22;6233;51.560;9.986;2023-06-10T19:07:06;21.30;99.90
12335;DHT22;6233;51.560;9.986;2023-06-10T19:10:08;21.30;99.90
12335;DHT22;6233;51.560;9.986;2023-06-10T19:13:10;21.20;99.90
12335;DHT22;6233;51.560;9.986;2023-06-10T19:16:11;21.20;99.90
12335;DHT22;6233;51.560;9.986;2023-06-10T19:19:13;21.10;99.90
12335;DHT22;6233;51.560;9.986;2023-06-10T19:22:15;21.00;99.90
12335;DHT22;6233;51.560;9.986;2023-06-10T19:25:20;20.90;99.90
12335;DHT22;6233;51.560;9.986;2023-06-10T19:28:21;20.80;99.90
12335;DHT22;6233;51.560;9.986;2023-06-10T19:31:23;20.70;99.90
12335;DHT22;6233;51.560;9.986;2023-06-10T19:34:26;20.70;99.90
12335;DHT22;6233;51.560;9.986;2023-06-10T19:37:27;20.60;99.90
12335;DHT22;6233;51.560;9.986;2023-06-10T19:40:29;20.50;99.90
12335;DHT22;6233;51.560;9.986;2023-06-10T19:43:31;20.50;99.90
12335;DHT22;6233;51.560;9.986;2023-06-10T19:46:33;20.40;99.90
12335;DHT22;6233;51.560;9.986;2023-06-10T19:49:35;20.40;99.90